sensor_id;sensor_type;location;lat;lon;timestamp;P1;durP1;ratioP1;P2;durP2;ratioP2
4186;SDS011;2107;52.306;10.484;2022-11-04T00:01:09;0.40;;;0.40;;
4186;SDS011;2107;52.306;10.484;2022-11-04T00:03:36;0.40;;;0.40;;
4186;SDS011;2107;52.306;10.484;2022-11-04T00:06:03;0.50;;;0.50;;
4186;SDS011;2107;52.306;10.484;2022-11-04T00:08:31;0.40;;;0.40;;
4186;SDS011;2107;52.306;10.484;2022-11-04T00:10:58;0.40;;;0.40;;
4186;SDS011;2107;52.306;10.484;2022-11-04T00:13:43;0.40;;;0.40;;
4186;SDS011;2107;52.306;10.484;2022-11-04T00:16:10;0.70;;;0.70;;
4186;SDS011;2107;52.306;10.484;2022-11-04T00:18:55;0.30;;;0.30;;
4186;SDS011;2107;52.306;10.484;2022-11-04T00:21:22;0.40;;;0.40;;
4186;SDS011;2107;52.306;10.484;2022-11-04T00:24:08;0.30;;;0.30;;
4186;SDS011;2107;52.306;10.484;2022-11-04T00:26:53;0.40;;;0.40;;
4186;SDS011;2107;52.306;10.484;2022-11-04T00:29:37;0.50;;;0.50;;
4186;SDS011;2107;52.306;10.484;2022-11-04T00:32:04;0.40;;;0.40;;
4186;SDS011;2107;52.306;10.484;2022-11-04T00:34:49;0.30;;;0.30;;
4186;SDS011;2107;52.306;10.484;2022-11-04T00:37:16;0.50;;;0.50;;
4186;SDS011;2107;52.306;10.484;2022-11-04T00:39:44;0.30;;;0.30;;
4186;SDS011;2107;52.306;10.484;2022-11-04T00:42:11;0.50;;;0.50;;
4186;SDS011;2107;52.306;10.484;2022-11-04T00:44:38;0.60;;;0.60;;
4186;SDS011;2107;52.306;10.484;2022-11-04T00:47:05;0.70;;;0.70;;
4186;SDS011;2107;52.306;10.484;2022-11-04T00:49:32;0.60;;;0.60;;
4186;SDS011;2107;52.306;10.484;2022-11-04T00:51:58;0.50;;;0.50;;
4186;SDS011;2107;52.306;10.484;2022-11-04T00:54:25;0.60;;;0.60;;
4186;SDS011;2107;52.306;10.484;2022-11-04T00:56:54;0.70;;;0.70;;
4186;SDS011;2107;52.306;10.484;2022-11-04T00:59:21;0.67;;;0.67;;
4186;SDS011;2107;52.306;10.484;2022-11-04T01:01:48;0.70;;;0.70;;
4186;SDS011;2107;52.306;10.484;2022-11-04T01:04:15;0.60;;;0.60;;
4186;SDS011;2107;52.306;10.484;2022-11-04T01:06:42;0.70;;;0.70;;
4186;SDS011;2107;52.306;10.484;2022-11-04T01:09:10;0.90;;;0.90;;
4186;SDS011;2107;52.306;10.484;2022-11-04T01:11:38;0.90;;;0.90;;
4186;SDS011;2107;52.306;10.484;2022-11-04T01:14:06;0.70;;;0.70;;
4186;SDS011;2107;52.306;10.484;2022-11-04T01:16:33;0.80;;;0.80;;
4186;SDS011;2107;52.306;10.484;2022-11-04T01:19:00;0.90;;;0.90;;
4186;SDS011;2107;52.306;10.484;2022-11-04T01:21:27;0.60;;;0.60;;
4186;SDS011;2107;52.306;10.484;2022-11-04T01:23:54;0.80;;;0.80;;
4186;SDS011;2107;52.306;10.484;2022-11-04T01:26:22;0.50;;;0.50;;
4186;SDS011;2107;52.306;10.484;2022-11-04T01:28:50;0.70;;;0.70;;
4186;SDS011;2107;52.306;10.484;2022-11-04T01:31:21;0.60;;;0.60;;
4186;SDS011;2107;52.306;10.484;2022-11-04T01:33:49;0.60;;;0.60;;
4186;SDS011;2107;52.306;10.484;2022-11-04T01:36:18;0.70;;;0.70;;
4186;SDS011;2107;52.306;10.484;2022-11-04T01:38:46;0.60;;;0.60;;
4186;SDS011;2107;52.306;10.484;2022-11-04T01:41:15;0.60;;;0.60;;
4186;SDS011;2107;52.306;10.484;2022-11-04T01:43:44;0.67;;;0.67;;
4186;SDS011;2107;52.306;10.484;2022-11-04T01:46:17;0.50;;;0.50;;
4186;SDS011;2107;52.306;10.484;2022-11-04T01:48:51;0.70;;;0.70;;
4186;SDS011;2107;52.306;10.484;2022-11-04T01:51:20;0.70;;;0.70;;
4186;SDS011;2107;52.306;10.484;2022-11-04T01:53:48;1.30;;;1.30;;
4186;SDS011;2107;52.306;10.484;2022-11-04T01:56:17;1.50;;;1.50;;
4186;SDS011;2107;52.306;10.484;2022-11-04T01:58:45;1.90;;;1.90;;
4186;SDS011;2107;52.306;10.484;2022-11-04T02:01:14;2.30;;;2.30;;
4186;SDS011;2107;52.306;10.484;2022-11-04T02:03:44;1.70;;;1.70;;
4186;SDS011;2107;52.306;10.484;2022-11-04T02:06:15;1.90;;;1.90;;
4186;SDS011;2107;52.306;10.484;2022-11-04T02:08:44;1.80;;;1.80;;
4186;SDS011;2107;52.306;10.484;2022-11-04T02:11:11;1.50;;;1.50;;
4186;SDS011;2107;52.306;10.484;2022-11-04T02:13:59;1.50;;;1.50;;
4186;SDS011;2107;52.306;10.484;2022-11-04T02:16:27;2.00;;;2.00;;
4186;SDS011;2107;52.306;10.484;2022-11-04T02:19:04;2.80;;;2.80;;
4186;SDS011;2107;52.306;10.484;2022-11-04T02:21:51;3.00;;;3.00;;
4186;SDS011;2107;52.306;10.484;2022-11-04T02:24:46;3.40;;;3.40;;
4186;SDS011;2107;52.306;10.484;2022-11-04T02:27:44;2.60;;;2.60;;
4186;SDS011;2107;52.306;10.484;2022-11-04T02:30:23;2.50;;;2.50;;
4186;SDS011;2107;52.306;10.484;2022-11-04T02:32:56;2.10;;;2.10;;
4186;SDS011;2107;52.306;10.484;2022-11-04T02:35:34;1.70;;;1.70;;
4186;SDS011;2107;52.306;10.484;2022-11-04T02:38:09;1.30;;;1.30;;
4186;SDS011;2107;52.306;10.484;2022-11-04T02:40:42;1.57;;;1.57;;
4186;SDS011;2107;52.306;10.484;2022-11-04T02:43:19;1.50;;;1.50;;
4186;SDS011;2107;52.306;10.484;2022-11-04T02:45:50;1.30;;;1.30;;
4186;SDS011;2107;52.306;10.484;2022-11-04T02:48:23;1.10;;;1.10;;
4186;SDS011;2107;52.306;10.484;2022-11-04T02:50:58;0.90;;;0.90;;
4186;SDS011;2107;52.306;10.484;2022-11-04T02:53:30;0.80;;;0.80;;
4186;SDS011;2107;52.306;10.484;2022-11-04T02:56:02;0.70;;;0.70;;
4186;SDS011;2107;52.306;10.484;2022-11-04T02:58:32;0.60;;;0.60;;
4186;SDS011;2107;52.306;10.484;2022-11-04T03:01:05;0.40;;;0.40;;
4186;SDS011;2107;52.306;10.484;2022-11-04T03:03:36;0.30;;;0.30;;
4186;SDS011;2107;52.306;10.484;2022-11-04T03:06:06;0.30;;;0.30;;
4186;SDS011;2107;52.306;10.484;2022-11-04T03:08:36;0.30;;;0.30;;
4186;SDS011;2107;52.306;10.484;2022-11-04T03:11:06;0.30;;;0.30;;
4186;SDS011;2107;52.306;10.484;2022-11-04T03:13:38;0.20;;;0.20;;
4186;SDS011;2107;52.306;10.484;2022-11-04T03:16:12;0.20;;;0.20;;
4186;SDS011;2107;52.306;10.484;2022-11-04T03:18:43;0.20;;;0.20;;
4186;SDS011;2107;52.306;10.484;2022-11-04T03:21:20;0.20;;;0.20;;
4186;SDS011;2107;52.306;10.484;2022-11-04T03:23:49;0.13;;;0.13;;
4186;SDS011;2107;52.306;10.484;2022-11-04T03:26:19;0.20;;;0.20;;
4186;SDS011;2107;52.306;10.484;2022-11-04T03:28:55;0.20;;;0.20;;
4186;SDS011;2107;52.306;10.484;2022-11-04T03:31:35;0.10;;;0.10;;
4186;SDS011;2107;52.306;10.484;2022-11-04T03:34:05;0.10;;;0.10;;
4186;SDS011;2107;52.306;10.484;2022-11-04T03:36:32;0.10;;;0.10;;
4186;SDS011;2107;52.306;10.484;2022-11-04T03:38:59;0.10;;;0.10;;
4186;SDS011;2107;52.306;10.484;2022-11-04T03:41:27;0.10;;;0.10;;
4186;SDS011;2107;52.306;10.484;2022-11-04T03:43:58;0.10;;;0.10;;
4186;SDS011;2107;52.306;10.484;2022-11-04T03:46:25;0.10;;;0.10;;
4186;SDS011;2107;52.306;10.484;2022-11-04T03:48:53;0.00;;;0.00;;
4186;SDS011;2107;52.306;10.484;2022-11-04T03:51:21;0.00;;;0.00;;
4186;SDS011;2107;52.306;10.484;2022-11-04T03:53:48;0.00;;;0.00;;
4186;SDS011;2107;52.306;10.484;2022-11-04T03:59:22;0.10;;;0.10;;
4186;SDS011;2107;52.306;10.484;2022-11-04T04:02:02;0.10;;;0.10;;
4186;SDS011;2107;52.306;10.484;2022-11-04T04:04:38;0.10;;;0.10;;
4186;SDS011;2107;52.306;10.484;2022-11-04T04:07:11;0.10;;;0.10;;
4186;SDS011;2107;52.306;10.484;2022-11-04T04:09:43;0.10;;;0.10;;
4186;SDS011;2107;52.306;10.484;2022-11-04T04:12:14;0.10;;;0.10;;
4186;SDS011;2107;52.306;10.484;2022-11-04T04:14:49;0.10;;;0.10;;
4186;SDS011;2107;52.306;10.484;2022-11-04T04:17:19;0.20;;;0.20;;
4186;SDS011;2107;52.306;10.484;2022-11-04T04:19:56;0.20;;;0.20;;
4186;SDS011;2107;52.306;10.484;2022-11-04T04:22:26;0.40;;;0.40;;
4186;SDS011;2107;52.306;10.484;2022-11-04T04:24:56;0.47;;;0.47;;
4186;SDS011;2107;52.306;10.484;2022-11-04T04:27:44;0.60;;;0.60;;
4186;SDS011;2107;52.306;10.484;2022-11-04T04:30:14;0.80;;;0.80;;
4186;SDS011;2107;52.306;10.484;2022-11-04T04:32:43;0.80;;;0.80;;
4186;SDS011;2107;52.306;10.484;2022-11-04T04:35:14;0.90;;;0.90;;
4186;SDS011;2107;52.306;10.484;2022-11-04T04:38:00;0.93;;;0.93;;
4186;SDS011;2107;52.306;10.484;2022-11-04T04:40:43;0.80;;;0.80;;
4186;SDS011;2107;52.306;10.484;2022-11-04T04:43:33;1.43;;;1.43;;
4186;SDS011;2107;52.306;10.484;2022-11-04T04:46:17;1.60;;;1.60;;
4186;SDS011;2107;52.306;10.484;2022-11-04T04:48:45;1.70;;;1.70;;
4186;SDS011;2107;52.306;10.484;2022-11-04T04:51:13;2.20;;;2.20;;
4186;SDS011;2107;52.306;10.484;2022-11-04T04:53:40;2.20;;;2.20;;
4186;SDS011;2107;52.306;10.484;2022-11-04T04:56:07;2.70;;;2.70;;
4186;SDS011;2107;52.306;10.484;2022-11-04T04:58:34;2.47;;;2.47;;
4186;SDS011;2107;52.306;10.484;2022-11-04T05:01:01;2.80;;;2.80;;
4186;SDS011;2107;52.306;10.484;2022-11-04T05:03:29;2.90;;;2.90;;
4186;SDS011;2107;52.306;10.484;2022-11-04T05:05:57;2.90;;;2.90;;
4186;SDS011;2107;52.306;10.484;2022-11-04T05:08:26;3.00;;;3.00;;
4186;SDS011;2107;52.306;10.484;2022-11-04T05:10:53;3.10;;;3.10;;
4186;SDS011;2107;52.306;10.484;2022-11-04T05:13:20;3.20;;;3.20;;
4186;SDS011;2107;52.306;10.484;2022-11-04T05:15:54;4.00;;;4.00;;
4186;SDS011;2107;52.306;10.484;2022-11-04T05:18:21;3.50;;;3.50;;
4186;SDS011;2107;52.306;10.484;2022-11-04T05:20:48;3.80;;;3.80;;
4186;SDS011;2107;52.306;10.484;2022-11-04T05:23:15;3.97;;;3.97;;
4186;SDS011;2107;52.306;10.484;2022-11-04T05:25:43;3.60;;;3.60;;
4186;SDS011;2107;52.306;10.484;2022-11-04T05:28:10;3.30;;;3.30;;
4186;SDS011;2107;52.306;10.484;2022-11-04T05:30:37;3.30;;;3.30;;
4186;SDS011;2107;52.306;10.484;2022-11-04T05:33:04;3.33;;;3.33;;
4186;SDS011;2107;52.306;10.484;2022-11-04T05:35:31;3.03;;;3.03;;
4186;SDS011;2107;52.306;10.484;2022-11-04T05:37:58;2.80;;;2.80;;
4186;SDS011;2107;52.306;10.484;2022-11-04T05:40:25;3.23;;;3.23;;
4186;SDS011;2107;52.306;10.484;2022-11-04T05:42:55;3.20;;;3.20;;
4186;SDS011;2107;52.306;10.484;2022-11-04T05:45:23;2.90;;;2.90;;
4186;SDS011;2107;52.306;10.484;2022-11-04T05:47:55;2.50;;;2.50;;
4186;SDS011;2107;52.306;10.484;2022-11-04T05:50:23;2.40;;;2.40;;
4186;SDS011;2107;52.306;10.484;2022-11-04T05:52:50;2.30;;;2.30;;
4186;SDS011;2107;52.306;10.484;2022-11-04T05:55:17;2.70;;;2.70;;
4186;SDS011;2107;52.306;10.484;2022-11-04T05:57:45;2.60;;;2.60;;
4186;SDS011;2107;52.306;10.484;2022-11-04T06:00:13;2.57;;;2.57;;
4186;SDS011;2107;52.306;10.484;2022-11-04T06:02:40;2.50;;;2.50;;
4186;SDS011;2107;52.306;10.484;2022-11-04T06:05:08;2.40;;;2.40;;
4186;SDS011;2107;52.306;10.484;2022-11-04T06:07:35;2.30;;;2.30;;
4186;SDS011;2107;52.306;10.484;2022-11-04T06:10:02;1.90;;;1.90;;
4186;SDS011;2107;52.306;10.484;2022-11-04T06:12:29;2.00;;;2.00;;
4186;SDS011;2107;52.306;10.484;2022-11-04T06:14:56;1.70;;;1.70;;
4186;SDS011;2107;52.306;10.484;2022-11-04T06:17:25;1.60;;;1.60;;
4186;SDS011;2107;52.306;10.484;2022-11-04T06:19:51;2.20;;;2.20;;
4186;SDS011;2107;52.306;10.484;2022-11-04T06:22:18;2.70;;;2.70;;
4186;SDS011;2107;52.306;10.484;2022-11-04T06:24:45;2.60;;;2.60;;
4186;SDS011;2107;52.306;10.484;2022-11-04T06:27:12;1.80;;;1.80;;
4186;SDS011;2107;52.306;10.484;2022-11-04T06:29:40;1.70;;;1.70;;
4186;SDS011;2107;52.306;10.484;2022-11-04T06:32:08;1.90;;;1.90;;
4186;SDS011;2107;52.306;10.484;2022-11-04T06:34:38;1.90;;;1.90;;
4186;SDS011;2107;52.306;10.484;2022-11-04T06:37:05;2.10;;;2.10;;
4186;SDS011;2107;52.306;10.484;2022-11-04T06:39:32;2.20;;;2.20;;
4186;SDS011;2107;52.306;10.484;2022-11-04T06:41:59;2.00;;;2.00;;
4186;SDS011;2107;52.306;10.484;2022-11-04T06:44:26;1.80;;;1.80;;
4186;SDS011;2107;52.306;10.484;2022-11-04T06:46:53;2.10;;;2.10;;
4186;SDS011;2107;52.306;10.484;2022-11-04T06:49:20;2.10;;;2.10;;
4186;SDS011;2107;52.306;10.484;2022-11-04T06:51:49;2.60;;;2.60;;
4186;SDS011;2107;52.306;10.484;2022-11-04T06:54:16;2.10;;;2.10;;
4186;SDS011;2107;52.306;10.484;2022-11-04T06:56:43;2.00;;;2.00;;
4186;SDS011;2107;52.306;10.484;2022-11-04T06:59:11;2.00;;;2.00;;
4186;SDS011;2107;52.306;10.484;2022-11-04T07:01:41;2.30;;;2.30;;
4186;SDS011;2107;52.306;10.484;2022-11-04T07:04:08;2.30;;;2.30;;
4186;SDS011;2107;52.306;10.484;2022-11-04T07:06:35;2.50;;;2.50;;
4186;SDS011;2107;52.306;10.484;2022-11-04T07:09:03;2.30;;;2.30;;
4186;SDS011;2107;52.306;10.484;2022-11-04T07:11:31;2.70;;;2.70;;
4186;SDS011;2107;52.306;10.484;2022-11-04T07:13:58;2.70;;;2.70;;
4186;SDS011;2107;52.306;10.484;2022-11-04T07:16:25;2.50;;;2.50;;
4186;SDS011;2107;52.306;10.484;2022-11-04T07:18:52;2.80;;;2.80;;
4186;SDS011;2107;52.306;10.484;2022-11-04T07:21:20;2.70;;;2.70;;
4186;SDS011;2107;52.306;10.484;2022-11-04T07:23:47;3.27;;;3.27;;
4186;SDS011;2107;52.306;10.484;2022-11-04T07:26:15;3.80;;;3.80;;
4186;SDS011;2107;52.306;10.484;2022-11-04T07:28:42;3.00;;;3.00;;
4186;SDS011;2107;52.306;10.484;2022-11-04T07:31:09;3.73;;;3.73;;
4186;SDS011;2107;52.306;10.484;2022-11-04T07:33:38;3.20;;;3.20;;
4186;SDS011;2107;52.306;10.484;2022-11-04T07:36:05;2.90;;;2.90;;
4186;SDS011;2107;52.306;10.484;2022-11-04T07:38:33;3.00;;;3.00;;
4186;SDS011;2107;52.306;10.484;2022-11-04T07:41:00;3.40;;;3.40;;
4186;SDS011;2107;52.306;10.484;2022-11-04T07:43:29;2.33;;;2.33;;
4186;SDS011;2107;52.306;10.484;2022-11-04T07:45:59;3.10;;;3.10;;
4186;SDS011;2107;52.306;10.484;2022-11-04T07:48:27;2.80;;;2.80;;
4186;SDS011;2107;52.306;10.484;2022-11-04T07:50:54;2.90;;;2.90;;
4186;SDS011;2107;52.306;10.484;2022-11-04T07:53:22;2.03;;;2.03;;
4186;SDS011;2107;52.306;10.484;2022-11-04T07:55:49;2.00;;;2.00;;
4186;SDS011;2107;52.306;10.484;2022-11-04T07:58:16;1.30;;;1.30;;
4186;SDS011;2107;52.306;10.484;2022-11-04T08:00:45;1.10;;;1.10;;
4186;SDS011;2107;52.306;10.484;2022-11-04T08:03:12;1.50;;;1.50;;
4186;SDS011;2107;52.306;10.484;2022-11-04T08:05:39;1.23;;;1.23;;
4186;SDS011;2107;52.306;10.484;2022-11-04T08:08:06;1.20;;;1.20;;
4186;SDS011;2107;52.306;10.484;2022-11-04T08:10:34;1.20;;;1.20;;
4186;SDS011;2107;52.306;10.484;2022-11-04T08:13:01;1.20;;;1.20;;
4186;SDS011;2107;52.306;10.484;2022-11-04T08:15:28;1.40;;;1.40;;
4186;SDS011;2107;52.306;10.484;2022-11-04T08:17:56;1.03;;;1.03;;
4186;SDS011;2107;52.306;10.484;2022-11-04T08:20:23;1.40;;;1.40;;
4186;SDS011;2107;52.306;10.484;2022-11-04T08:22:50;1.10;;;1.10;;
4186;SDS011;2107;52.306;10.484;2022-11-04T08:25:17;1.00;;;1.00;;
4186;SDS011;2107;52.306;10.484;2022-11-04T08:27:43;1.00;;;1.00;;
4186;SDS011;2107;52.306;10.484;2022-11-04T08:30:10;0.90;;;0.90;;
4186;SDS011;2107;52.306;10.484;2022-11-04T08:32:37;1.00;;;1.00;;
4186;SDS011;2107;52.306;10.484;2022-11-04T08:35:06;1.40;;;1.40;;
4186;SDS011;2107;52.306;10.484;2022-11-04T08:37:34;1.33;;;1.33;;
4186;SDS011;2107;52.306;10.484;2022-11-04T08:40:03;1.40;;;1.40;;
4186;SDS011;2107;52.306;10.484;2022-11-04T08:42:31;1.40;;;1.40;;
4186;SDS011;2107;52.306;10.484;2022-11-04T08:44:58;1.20;;;1.20;;
4186;SDS011;2107;52.306;10.484;2022-11-04T08:47:25;1.13;;;1.13;;
4186;SDS011;2107;52.306;10.484;2022-11-04T08:49:52;1.13;;;1.13;;
4186;SDS011;2107;52.306;10.484;2022-11-04T08:52:20;1.30;;;1.30;;
4186;SDS011;2107;52.306;10.484;2022-11-04T08:54:47;1.20;;;1.20;;
4186;SDS011;2107;52.306;10.484;2022-11-04T08:57:14;1.30;;;1.30;;
4186;SDS011;2107;52.306;10.484;2022-11-04T08:59:41;1.20;;;1.20;;
4186;SDS011;2107;52.306;10.484;2022-11-04T09:02:09;0.90;;;0.90;;
4186;SDS011;2107;52.306;10.484;2022-11-04T09:04:39;1.10;;;1.10;;
4186;SDS011;2107;52.306;10.484;2022-11-04T09:07:06;1.00;;;1.00;;
4186;SDS011;2107;52.306;10.484;2022-11-04T09:09:34;1.00;;;1.00;;
4186;SDS011;2107;52.306;10.484;2022-11-04T09:12:03;1.00;;;1.00;;
4186;SDS011;2107;52.306;10.484;2022-11-04T09:14:33;1.00;;;1.00;;
4186;SDS011;2107;52.306;10.484;2022-11-04T09:17:00;1.00;;;1.00;;
4186;SDS011;2107;52.306;10.484;2022-11-04T09:19:27;1.00;;;1.00;;
4186;SDS011;2107;52.306;10.484;2022-11-04T09:21:54;1.07;;;1.07;;
4186;SDS011;2107;52.306;10.484;2022-11-04T09:24:20;1.10;;;1.10;;
4186;SDS011;2107;52.306;10.484;2022-11-04T09:26:49;1.10;;;1.10;;
4186;SDS011;2107;52.306;10.484;2022-11-04T09:29:16;1.17;;;1.17;;
4186;SDS011;2107;52.306;10.484;2022-11-04T09:31:43;1.00;;;1.00;;
4186;SDS011;2107;52.306;10.484;2022-11-04T09:34:09;1.10;;;1.10;;
4186;SDS011;2107;52.306;10.484;2022-11-04T09:36:36;0.90;;;0.90;;
4186;SDS011;2107;52.306;10.484;2022-11-04T09:39:03;0.90;;;0.90;;
4186;SDS011;2107;52.306;10.484;2022-11-04T09:44:39;1.10;;;1.10;;
4186;SDS011;2107;52.306;10.484;2022-11-04T09:47:14;1.03;;;1.03;;
4186;SDS011;2107;52.306;10.484;2022-11-04T09:49:43;0.90;;;0.90;;
4186;SDS011;2107;52.306;10.484;2022-11-04T09:52:14;0.93;;;0.93;;
4186;SDS011;2107;52.306;10.484;2022-11-04T09:54:47;0.80;;;0.80;;
4186;SDS011;2107;52.306;10.484;2022-11-04T09:57:21;1.10;;;1.10;;
4186;SDS011;2107;52.306;10.484;2022-11-04T09:59:48;1.00;;;1.00;;
4186;SDS011;2107;52.306;10.484;2022-11-04T10:02:22;1.20;;;1.20;;
4186;SDS011;2107;52.306;10.484;2022-11-04T10:05:02;1.20;;;1.20;;
4186;SDS011;2107;52.306;10.484;2022-11-04T10:07:44;0.80;;;0.80;;
4186;SDS011;2107;52.306;10.484;2022-11-04T10:10:22;0.80;;;0.80;;
4186;SDS011;2107;52.306;10.484;2022-11-04T10:13:05;0.80;;;0.80;;
4186;SDS011;2107;52.306;10.484;2022-11-04T10:16:01;0.90;;;0.90;;
4186;SDS011;2107;52.306;10.484;2022-11-04T10:18:46;0.70;;;0.70;;
4186;SDS011;2107;52.306;10.484;2022-11-04T10:21:35;0.80;;;0.80;;
4186;SDS011;2107;52.306;10.484;2022-11-04T10:24:22;1.00;;;1.00;;
4186;SDS011;2107;52.306;10.484;2022-11-04T10:26:53;0.90;;;0.90;;
4186;SDS011;2107;52.306;10.484;2022-11-04T10:29:27;0.80;;;0.80;;
4186;SDS011;2107;52.306;10.484;2022-11-04T10:31:59;0.80;;;0.80;;
4186;SDS011;2107;52.306;10.484;2022-11-04T10:34:33;0.83;;;0.83;;
4186;SDS011;2107;52.306;10.484;2022-11-04T10:37:03;1.10;;;1.10;;
4186;SDS011;2107;52.306;10.484;2022-11-04T10:39:34;0.90;;;0.90;;
4186;SDS011;2107;52.306;10.484;2022-11-04T10:42:04;0.60;;;0.60;;
4186;SDS011;2107;52.306;10.484;2022-11-04T10:44:33;0.70;;;0.70;;
4186;SDS011;2107;52.306;10.484;2022-11-04T10:47:10;0.70;;;0.70;;
4186;SDS011;2107;52.306;10.484;2022-11-04T10:49:53;0.80;;;0.80;;
4186;SDS011;2107;52.306;10.484;2022-11-04T10:52:37;0.70;;;0.70;;
4186;SDS011;2107;52.306;10.484;2022-11-04T10:55:09;1.00;;;1.00;;
4186;SDS011;2107;52.306;10.484;2022-11-04T10:57:44;0.90;;;0.90;;
4186;SDS011;2107;52.306;10.484;2022-11-04T11:00:13;0.70;;;0.70;;
4186;SDS011;2107;52.306;10.484;2022-11-04T11:02:58;0.80;;;0.80;;
4186;SDS011;2107;52.306;10.484;2022-11-04T11:05:25;0.77;;;0.77;;
4186;SDS011;2107;52.306;10.484;2022-11-04T11:07:53;0.80;;;0.80;;
4186;SDS011;2107;52.306;10.484;2022-11-04T11:10:22;0.90;;;0.90;;
4186;SDS011;2107;52.306;10.484;2022-11-04T11:12:54;0.80;;;0.80;;
4186;SDS011;2107;52.306;10.484;2022-11-04T11:15:31;0.80;;;0.80;;
4186;SDS011;2107;52.306;10.484;2022-11-04T11:18:05;0.90;;;0.90;;
4186;SDS011;2107;52.306;10.484;2022-11-04T11:20:39;0.90;;;0.90;;
4186;SDS011;2107;52.306;10.484;2022-11-04T11:26:00;0.90;;;0.90;;
4186;SDS011;2107;52.306;10.484;2022-11-04T11:28:28;0.50;;;0.50;;
4186;SDS011;2107;52.306;10.484;2022-11-04T11:31:03;0.50;;;0.50;;
4186;SDS011;2107;52.306;10.484;2022-11-04T11:33:37;0.50;;;0.50;;
4186;SDS011;2107;52.306;10.484;2022-11-04T11:36:07;0.40;;;0.40;;
4186;SDS011;2107;52.306;10.484;2022-11-04T11:38:50;0.50;;;0.50;;
4186;SDS011;2107;52.306;10.484;2022-11-04T11:41:27;0.50;;;0.50;;
4186;SDS011;2107;52.306;10.484;2022-11-04T11:43:57;0.60;;;0.60;;
4186;SDS011;2107;52.306;10.484;2022-11-04T11:46:28;0.60;;;0.60;;
4186;SDS011;2107;52.306;10.484;2022-11-04T11:48:58;0.50;;;0.50;;
4186;SDS011;2107;52.306;10.484;2022-11-04T11:51:30;0.50;;;0.50;;
4186;SDS011;2107;52.306;10.484;2022-11-04T11:54:19;0.70;;;0.70;;
4186;SDS011;2107;52.306;10.484;2022-11-04T11:56:51;0.80;;;0.80;;
4186;SDS011;2107;52.306;10.484;2022-11-04T11:59:22;0.70;;;0.70;;
4186;SDS011;2107;52.306;10.484;2022-11-04T12:02:03;0.40;;;0.40;;
4186;SDS011;2107;52.306;10.484;2022-11-04T12:04:45;0.40;;;0.40;;
4186;SDS011;2107;52.306;10.484;2022-11-04T12:07:14;0.50;;;0.50;;
4186;SDS011;2107;52.306;10.484;2022-11-04T12:09:52;0.90;;;0.90;;
4186;SDS011;2107;52.306;10.484;2022-11-04T12:12:33;0.90;;;0.90;;
4186;SDS011;2107;52.306;10.484;2022-11-04T12:15:16;0.80;;;0.80;;
4186;SDS011;2107;52.306;10.484;2022-11-04T12:18:15;1.00;;;1.00;;
4186;SDS011;2107;52.306;10.484;2022-11-04T12:20:58;1.20;;;1.20;;
4186;SDS011;2107;52.306;10.484;2022-11-04T12:23:34;0.70;;;0.70;;
4186;SDS011;2107;52.306;10.484;2022-11-04T12:26:12;0.80;;;0.80;;
4186;SDS011;2107;52.306;10.484;2022-11-04T12:28:50;1.03;;;1.03;;
4186;SDS011;2107;52.306;10.484;2022-11-04T12:31:30;1.00;;;1.00;;
4186;SDS011;2107;52.306;10.484;2022-11-04T12:34:09;1.00;;;1.00;;
4186;SDS011;2107;52.306;10.484;2022-11-04T12:36:53;0.50;;;0.50;;
4186;SDS011;2107;52.306;10.484;2022-11-04T12:39:33;0.80;;;0.80;;
4186;SDS011;2107;52.306;10.484;2022-11-04T12:42:13;0.80;;;0.80;;
4186;SDS011;2107;52.306;10.484;2022-11-04T12:44:50;0.80;;;0.80;;
4186;SDS011;2107;52.306;10.484;2022-11-04T12:47:25;0.90;;;0.90;;
4186;SDS011;2107;52.306;10.484;2022-11-04T12:50:03;0.80;;;0.80;;
4186;SDS011;2107;52.306;10.484;2022-11-04T12:52:42;0.70;;;0.70;;
4186;SDS011;2107;52.306;10.484;2022-11-04T12:55:31;0.80;;;0.80;;
4186;SDS011;2107;52.306;10.484;2022-11-04T12:58:09;0.73;;;0.73;;
4186;SDS011;2107;52.306;10.484;2022-11-04T13:00:55;0.70;;;0.70;;
4186;SDS011;2107;52.306;10.484;2022-11-04T13:03:27;0.63;;;0.63;;
4186;SDS011;2107;52.306;10.484;2022-11-04T13:06:01;0.60;;;0.60;;
4186;SDS011;2107;52.306;10.484;2022-11-04T13:08:32;0.50;;;0.50;;
4186;SDS011;2107;52.306;10.484;2022-11-04T13:11:07;0.80;;;0.80;;
4186;SDS011;2107;52.306;10.484;2022-11-04T13:13:48;0.70;;;0.70;;
4186;SDS011;2107;52.306;10.484;2022-11-04T13:16:21;0.50;;;0.50;;
4186;SDS011;2107;52.306;10.484;2022-11-04T13:18:49;0.70;;;0.70;;
4186;SDS011;2107;52.306;10.484;2022-11-04T13:21:19;0.57;;;0.57;;
4186;SDS011;2107;52.306;10.484;2022-11-04T13:23:50;0.80;;;0.80;;
4186;SDS011;2107;52.306;10.484;2022-11-04T13:26:22;0.60;;;0.60;;
4186;SDS011;2107;52.306;10.484;2022-11-04T13:28:52;0.60;;;0.60;;
4186;SDS011;2107;52.306;10.484;2022-11-04T13:31:26;0.60;;;0.60;;
4186;SDS011;2107;52.306;10.484;2022-11-04T13:34:00;0.87;;;0.87;;
4186;SDS011;2107;52.306;10.484;2022-11-04T13:36:40;0.80;;;0.80;;
4186;SDS011;2107;52.306;10.484;2022-11-04T13:39:12;0.60;;;0.60;;
4186;SDS011;2107;52.306;10.484;2022-11-04T13:41:50;0.70;;;0.70;;
4186;SDS011;2107;52.306;10.484;2022-11-04T13:44:36;0.60;;;0.60;;
4186;SDS011;2107;52.306;10.484;2022-11-04T13:47:11;0.60;;;0.60;;
4186;SDS011;2107;52.306;10.484;2022-11-04T13:49:46;0.70;;;0.70;;
4186;SDS011;2107;52.306;10.484;2022-11-04T13:52:16;0.60;;;0.60;;
4186;SDS011;2107;52.306;10.484;2022-11-04T13:54:44;0.50;;;0.50;;
4186;SDS011;2107;52.306;10.484;2022-11-04T13:57:18;0.70;;;0.70;;
4186;SDS011;2107;52.306;10.484;2022-11-04T14:02:47;0.60;;;0.60;;
4186;SDS011;2107;52.306;10.484;2022-11-04T14:08:23;0.80;;;0.80;;
4186;SDS011;2107;52.306;10.484;2022-11-04T14:10:57;0.60;;;0.60;;
4186;SDS011;2107;52.306;10.484;2022-11-04T14:13:40;0.70;;;0.70;;
4186;SDS011;2107;52.306;10.484;2022-11-04T14:16:41;0.53;;;0.53;;
4186;SDS011;2107;52.306;10.484;2022-11-04T14:22:21;0.50;;;0.50;;
4186;SDS011;2107;52.306;10.484;2022-11-04T14:24:56;0.50;;;0.50;;
4186;SDS011;2107;52.306;10.484;2022-11-04T14:27:26;0.60;;;0.60;;
4186;SDS011;2107;52.306;10.484;2022-11-04T14:30:01;0.67;;;0.67;;
4186;SDS011;2107;52.306;10.484;2022-11-04T14:32:30;0.67;;;0.67;;
4186;SDS011;2107;52.306;10.484;2022-11-04T14:35:02;0.50;;;0.50;;
4186;SDS011;2107;52.306;10.484;2022-11-04T14:37:32;0.70;;;0.70;;
4186;SDS011;2107;52.306;10.484;2022-11-04T14:40:03;0.53;;;0.53;;
4186;SDS011;2107;52.306;10.484;2022-11-04T14:42:42;0.70;;;0.70;;
4186;SDS011;2107;52.306;10.484;2022-11-04T14:45:14;0.73;;;0.73;;
4186;SDS011;2107;52.306;10.484;2022-11-04T14:47:45;0.90;;;0.90;;
4186;SDS011;2107;52.306;10.484;2022-11-04T14:50:17;0.80;;;0.80;;
4186;SDS011;2107;52.306;10.484;2022-11-04T14:52:47;0.83;;;0.83;;
4186;SDS011;2107;52.306;10.484;2022-11-04T14:55:20;0.90;;;0.90;;
4186;SDS011;2107;52.306;10.484;2022-11-04T14:57:49;0.80;;;0.80;;
4186;SDS011;2107;52.306;10.484;2022-11-04T15:00:26;0.90;;;0.90;;
4186;SDS011;2107;52.306;10.484;2022-11-04T15:02:58;0.73;;;0.73;;
4186;SDS011;2107;52.306;10.484;2022-11-04T15:05:31;1.00;;;1.00;;
4186;SDS011;2107;52.306;10.484;2022-11-04T15:08:01;1.10;;;1.10;;
4186;SDS011;2107;52.306;10.484;2022-11-04T15:10:47;1.10;;;1.10;;
4186;SDS011;2107;52.306;10.484;2022-11-04T15:13:18;1.00;;;1.00;;
4186;SDS011;2107;52.306;10.484;2022-11-04T15:15:45;0.80;;;0.80;;
4186;SDS011;2107;52.306;10.484;2022-11-04T15:18:16;1.00;;;1.00;;
4186;SDS011;2107;52.306;10.484;2022-11-04T15:20:47;1.00;;;1.00;;
4186;SDS011;2107;52.306;10.484;2022-11-04T15:23:17;0.80;;;0.80;;
4186;SDS011;2107;52.306;10.484;2022-11-04T15:25:50;0.80;;;0.80;;
4186;SDS011;2107;52.306;10.484;2022-11-04T15:28:18;0.90;;;0.90;;
4186;SDS011;2107;52.306;10.484;2022-11-04T15:31:01;1.10;;;1.10;;
4186;SDS011;2107;52.306;10.484;2022-11-04T15:33:31;0.90;;;0.90;;
4186;SDS011;2107;52.306;10.484;2022-11-04T15:36:04;0.60;;;0.60;;
4186;SDS011;2107;52.306;10.484;2022-11-04T15:38:33;0.90;;;0.90;;
4186;SDS011;2107;52.306;10.484;2022-11-04T15:41:02;1.10;;;1.10;;
4186;SDS011;2107;52.306;10.484;2022-11-04T15:43:43;1.13;;;1.13;;
4186;SDS011;2107;52.306;10.484;2022-11-04T15:46:15;1.10;;;1.10;;